createdAt,value
2019-02-08T00:00:10.245Z,17.19
2019-02-08T00:00:50.874Z,17.22
2019-02-08T00:01:31.557Z,17.22
2019-02-08T00:02:13.291Z,17.22
2019-02-08T00:02:53.931Z,17.19
2019-02-08T00:03:34.581Z,17.22
2019-02-08T00:04:15.216Z,17.23
2019-02-08T00:04:55.861Z,17.14
2019-02-08T00:05:36.499Z,17.19
2019-02-08T00:06:17.138Z,17.19
2019-02-08T00:06:57.781Z,17.21
2019-02-08T00:07:38.419Z,17.19
2019-02-08T00:08:19.097Z,17.26
2019-02-08T00:08:59.761Z,17.19
2019-02-08T00:09:40.486Z,17.21
2019-02-08T00:10:21.167Z,17.19
2019-02-08T00:11:01.833Z,17.19
2019-02-08T00:11:42.525Z,17.15
2019-02-08T00:12:23.117Z,17.21
2019-02-08T00:13:04.716Z,17.18
2019-02-08T00:13:45.354Z,17.22
2019-02-08T00:14:26.030Z,17.22
2019-02-08T00:15:06.673Z,17.18
2019-02-08T00:15:47.322Z,17.22
2019-02-08T00:16:27.954Z,17.21
2019-02-08T00:17:08.611Z,17.21
2019-02-08T00:17:49.246Z,17.21
2019-02-08T00:18:29.877Z,17.21
2019-02-08T00:19:10.528Z,17.28
2019-02-08T00:19:51.179Z,17.18
2019-02-08T00:20:31.833Z,17.21
2019-02-08T00:21:12.468Z,17.22
2019-02-08T00:21:53.122Z,17.16
2019-02-08T00:22:33.758Z,17.21
2019-02-08T00:23:25.953Z,17.19
2019-02-08T00:23:55.041Z,17.21
2019-02-08T00:24:35.680Z,17.18
2019-02-08T00:25:16.291Z,17.22
2019-02-08T00:25:56.925Z,17.23
2019-02-08T00:26:37.539Z,17.23
2019-02-08T00:27:18.149Z,17.19
2019-02-08T00:27:58.750Z,17.18
2019-02-08T00:28:39.373Z,17.16
2019-02-08T00:29:19.959Z,17.22
2019-02-08T00:30:00.568Z,17.26
2019-02-08T00:30:41.209Z,17.21
2019-02-08T00:31:21.822Z,17.23
2019-02-08T00:32:02.475Z,17.19
2019-02-08T00:32:43.111Z,17.16
2019-02-08T00:33:23.723Z,17.16
2019-02-08T00:34:04.334Z,17.21
2019-02-08T00:34:44.969Z,17.18
2019-02-08T00:35:25.577Z,17.16
2019-02-08T00:36:06.193Z,17.14
2019-02-08T00:36:46.791Z,17.21
2019-02-08T00:37:27.413Z,17.21
2019-02-08T00:38:08.011Z,17.18
2019-02-08T00:38:48.617Z,17.12
2019-02-08T00:39:29.215Z,17.21
2019-02-08T00:40:09.838Z,17.22
2019-02-08T00:40:50.435Z,17.21
2019-02-08T00:41:31.089Z,17.14
2019-02-08T00:42:11.711Z,17.16
2019-02-08T00:42:52.351Z,17.21
2019-02-08T00:43:32.973Z,17.14
2019-02-08T00:44:13.578Z,17.19
2019-02-08T00:44:54.221Z,17.18
2019-02-08T00:45:34.791Z,17.15
2019-02-08T00:46:15.389Z,17.15
2019-02-08T00:46:56.046Z,17.18
2019-02-08T00:47:36.635Z,17.21
2019-02-08T00:48:17.240Z,17.21
2019-02-08T00:48:57.831Z,17.18
2019-02-08T00:49:38.445Z,17.21
2019-02-08T00:50:19.071Z,17.15
2019-02-08T00:50:59.679Z,17.18
2019-02-08T00:51:40.290Z,17.19
2019-02-08T00:52:20.875Z,17.18
2019-02-08T00:53:01.505Z,17.16
2019-02-08T00:53:42.091Z,17.18
2019-02-08T00:54:22.719Z,17.12
2019-02-08T00:55:03.358Z,17.18
2019-02-08T00:55:43.963Z,17.22
2019-02-08T00:56:24.571Z,17.21
2019-02-08T00:57:05.177Z,17.19
2019-02-08T00:57:45.813Z,17.15
2019-02-08T00:58:26.420Z,17.21
2019-02-08T00:59:07.039Z,17.21
2019-02-08T00:59:47.661Z,17.18
2019-02-08T01:00:28.251Z,17.16
2019-02-08T01:01:08.846Z,17.19
2019-02-08T01:01:49.453Z,17.21
2019-02-08T01:02:30.065Z,17.19
2019-02-08T01:03:10.685Z,17.21
2019-02-08T01:03:51.298Z,17.12
2019-02-08T01:04:31.893Z,17.08
2019-02-08T01:05:12.491Z,17.08
2019-02-08T01:05:53.099Z,17.11
2019-02-08T01:06:33.693Z,17.12
2019-02-08T01:07:14.297Z,17.07
2019-02-08T01:07:54.884Z,17.14
2019-02-08T01:08:35.477Z,17.18
2019-02-08T01:09:16.069Z,17.18
2019-02-08T01:09:56.689Z,17.12
2019-02-08T01:10:37.287Z,17.18
2019-02-08T01:11:17.892Z,17.14
2019-02-08T01:11:58.509Z,17.16
2019-02-08T01:12:39.106Z,17.12
2019-02-08T01:13:19.713Z,17.15
2019-02-08T01:14:00.319Z,17.19
2019-02-08T01:14:40.921Z,17.18
2019-02-08T01:15:21.527Z,17.14
2019-02-08T01:16:02.117Z,17.12
2019-02-08T01:16:42.727Z,17.14
2019-02-08T01:17:23.329Z,17.07
2019-02-08T01:18:03.927Z,17.25
2019-02-08T01:18:44.529Z,17.14
2019-02-08T01:19:25.189Z,17.15
2019-02-08T01:20:05.778Z,17.18
2019-02-08T01:20:46.372Z,17.14
2019-02-08T01:21:26.982Z,17.07
2019-02-08T01:22:07.635Z,17.14
2019-02-08T01:22:48.239Z,17.15
2019-02-08T01:23:28.843Z,17.14
2019-02-08T01:24:09.502Z,17.16
2019-02-08T01:24:50.048Z,17.07
2019-02-08T01:25:30.639Z,17.04
2019-02-08T01:26:11.245Z,17.12
2019-02-08T01:26:51.951Z,17.11
2019-02-08T01:27:32.545Z,17.06
2019-02-08T01:28:13.151Z,17.08
2019-02-08T01:28:53.767Z,17.08
2019-02-08T01:29:34.412Z,17.06
2019-02-08T01:30:15.054Z,17.14
2019-02-08T01:30:55.666Z,17.04
2019-02-08T01:31:36.238Z,17.06
2019-02-08T01:32:16.837Z,17.08
2019-02-08T01:32:57.467Z,17.15
2019-02-08T01:33:38.102Z,17.07
2019-02-08T01:34:18.685Z,17.14
2019-02-08T01:34:59.277Z,17.15
2019-02-08T01:35:39.869Z,17.11
2019-02-08T01:36:20.475Z,17.11
2019-02-08T01:37:01.090Z,17.12
2019-02-08T01:37:41.734Z,17.07
2019-02-08T01:38:22.318Z,17.07
2019-02-08T01:39:02.913Z,17.06
2019-02-08T01:39:43.542Z,17.12
2019-02-08T01:40:24.133Z,17.14
2019-02-08T01:41:04.722Z,17.06
2019-02-08T01:41:45.335Z,17.07
2019-02-08T01:42:25.945Z,17.11
2019-02-08T01:43:06.548Z,17.07
2019-02-08T01:43:47.155Z,17.11
2019-02-08T01:44:27.747Z,17.08
2019-02-08T01:45:08.347Z,17.11
2019-02-08T01:45:48.951Z,17.07
2019-02-08T01:46:29.557Z,17.11
2019-02-08T01:47:10.153Z,17.06
2019-02-08T01:47:51.584Z,17.11
2019-02-08T01:48:33.863Z,17.11
2019-02-08T01:49:14.459Z,17.03
2019-02-08T01:49:55.057Z,17.08
2019-02-08T01:50:35.677Z,17.07
2019-02-08T01:51:16.263Z,17.12
2019-02-08T01:51:56.863Z,17.04
2019-02-08T01:52:37.463Z,17.06
2019-02-08T01:53:18.133Z,17.06
2019-02-08T01:53:58.729Z,17.04
2019-02-08T01:54:39.386Z,17.14
2019-02-08T01:55:19.997Z,17.11
2019-02-08T01:56:00.599Z,17.11
2019-02-08T01:56:41.188Z,17.06
2019-02-08T01:57:21.781Z,17.11
2019-02-08T01:58:02.391Z,17.12
2019-02-08T01:58:43.017Z,17.07
2019-02-08T01:59:23.613Z,17.07
2019-02-08T02:00:04.215Z,17.12
2019-02-08T02:00:44.842Z,17.11
2019-02-08T02:01:25.451Z,17.06
2019-02-08T02:02:06.057Z,17.03
2019-02-08T02:02:46.659Z,17.01
2019-02-08T02:03:27.245Z,17.04
2019-02-08T02:04:07.848Z,17.04
2019-02-08T02:04:48.447Z,17.14
2019-02-08T02:05:29.058Z,17
2019-02-08T02:06:09.647Z,17.08
2019-02-08T02:06:50.237Z,17.04
2019-02-08T02:07:30.861Z,17.11
2019-02-08T02:08:11.455Z,17.06
2019-02-08T02:08:52.059Z,17.04
2019-02-08T02:09:32.647Z,17.01
2019-02-08T02:10:13.264Z,17.06
2019-02-08T02:10:53.860Z,17.11
2019-02-08T02:11:34.447Z,17.07
2019-02-08T02:12:15.044Z,17.06
2019-02-08T02:12:55.631Z,17.08
2019-02-08T02:13:36.227Z,17.06
2019-02-08T02:14:16.825Z,17.03
2019-02-08T02:14:57.415Z,17.06
2019-02-08T02:15:38.038Z,17.06
2019-02-08T02:16:18.633Z,17.04
2019-02-08T02:16:59.237Z,17.12
2019-02-08T02:17:39.833Z,17.12
2019-02-08T02:18:20.433Z,17.11
2019-02-08T02:19:01.094Z,17.06
2019-02-08T02:19:41.693Z,17
2019-02-08T02:20:22.286Z,17.07
2019-02-08T02:21:02.891Z,17.01
2019-02-08T02:21:43.489Z,17.08
2019-02-08T02:22:24.079Z,17.07
2019-02-08T02:23:04.665Z,17.12
2019-02-08T02:23:45.253Z,17.03
2019-02-08T02:24:25.840Z,17.07
2019-02-08T02:25:06.440Z,17.03
2019-02-08T02:25:47.051Z,17.07
2019-02-08T02:26:27.700Z,17.03
2019-02-08T02:27:08.287Z,17.11
2019-02-08T02:27:48.899Z,16.97
2019-02-08T02:28:29.487Z,17.01
2019-02-08T02:29:10.095Z,16.98
2019-02-08T02:29:50.707Z,16.94
2019-02-08T02:30:31.320Z,17.11
2019-02-08T02:31:11.943Z,17
2019-02-08T02:31:52.544Z,16.97
2019-02-08T02:32:33.156Z,16.98
2019-02-08T02:33:13.747Z,17.04
2019-02-08T02:33:54.363Z,16.97
2019-02-08T02:34:34.975Z,17.06
2019-02-08T02:35:15.575Z,17.01
2019-02-08T02:35:56.187Z,17.03
2019-02-08T02:36:36.776Z,17.01
2019-02-08T02:37:17.361Z,16.96
2019-02-08T02:37:57.968Z,16.97
2019-02-08T02:38:38.620Z,16.98
2019-02-08T02:39:19.184Z,16.96
2019-02-08T02:39:59.783Z,16.89
2019-02-08T02:40:40.387Z,16.94
2019-02-08T02:41:21.005Z,16.94
2019-02-08T02:42:01.638Z,16.94
2019-02-08T02:42:42.253Z,16.96
2019-02-08T02:43:22.858Z,17.03
2019-02-08T02:44:03.486Z,16.94
2019-02-08T02:44:44.114Z,16.93
2019-02-08T02:45:24.705Z,16.91
2019-02-08T02:46:05.328Z,16.93
2019-02-08T02:46:45.886Z,17.01
2019-02-08T02:47:26.485Z,16.96
2019-02-08T02:48:07.092Z,16.93
2019-02-08T02:48:47.700Z,16.93
2019-02-08T02:49:28.286Z,16.97
2019-02-08T02:50:08.879Z,16.91
2019-02-08T02:50:49.477Z,16.96
2019-02-08T02:51:30.065Z,16.94
2019-02-08T02:52:10.659Z,17
2019-02-08T02:52:51.259Z,16.93
2019-02-08T02:53:31.848Z,16.93
2019-02-08T02:54:12.453Z,16.89
2019-02-08T02:54:53.097Z,16.94
2019-02-08T02:55:33.735Z,16.94
2019-02-08T02:56:14.328Z,16.91
2019-02-08T02:56:54.935Z,16.96
2019-02-08T02:57:35.546Z,17.01
2019-02-08T02:58:16.152Z,16.91
2019-02-08T02:58:56.764Z,16.91
2019-02-08T02:59:37.375Z,17.01
2019-02-08T03:00:18.014Z,16.88
2019-02-08T03:00:58.638Z,16.91
2019-02-08T03:01:39.247Z,16.91
2019-02-08T03:02:19.861Z,16.89
2019-02-08T03:03:00.465Z,16.89
2019-02-08T03:03:41.085Z,16.91
2019-02-08T03:04:21.683Z,17.01
2019-02-08T03:05:02.269Z,16.94
2019-02-08T03:05:42.878Z,16.91
2019-02-08T03:06:23.487Z,16.94
2019-02-08T03:07:04.091Z,16.97
2019-02-08T03:07:44.690Z,16.97
2019-02-08T03:08:25.293Z,16.94
2019-02-08T03:09:05.893Z,16.98
2019-02-08T03:09:46.495Z,17
2019-02-08T03:10:27.082Z,16.94
2019-02-08T03:11:07.673Z,17.03
2019-02-08T03:11:48.293Z,16.94
2019-02-08T03:12:28.904Z,17
2019-02-08T03:13:09.492Z,16.86
2019-02-08T03:13:50.104Z,16.98
2019-02-08T03:14:30.709Z,16.96
2019-02-08T03:15:11.323Z,16.94
2019-02-08T03:15:51.916Z,16.97
2019-02-08T03:16:32.507Z,16.93
2019-02-08T03:17:13.110Z,17
2019-02-08T03:17:53.710Z,16.88
2019-02-08T03:18:34.316Z,16.93
2019-02-08T03:19:14.923Z,16.88
2019-02-08T03:19:55.510Z,16.97
2019-02-08T03:20:36.115Z,16.91
2019-02-08T03:21:16.713Z,16.91
2019-02-08T03:21:57.327Z,16.91
2019-02-08T03:22:37.913Z,16.91
2019-02-08T03:23:18.523Z,16.89
2019-02-08T03:23:59.121Z,16.91
2019-02-08T03:24:39.771Z,16.97
2019-02-08T03:25:20.382Z,16.98
2019-02-08T03:26:00.985Z,16.98
2019-02-08T03:26:41.585Z,16.86
2019-02-08T03:27:22.176Z,16.91
2019-02-08T03:28:02.840Z,16.94
2019-02-08T03:28:43.464Z,16.88
2019-02-08T03:29:24.066Z,16.89
2019-02-08T03:30:04.691Z,16.86
2019-02-08T03:30:45.335Z,16.91
2019-02-08T03:31:25.896Z,16.94
2019-02-08T03:32:06.499Z,16.93
2019-02-08T03:32:47.092Z,16.88
2019-02-08T03:33:27.728Z,16.88
2019-02-08T03:34:08.316Z,16.91
2019-02-08T03:34:48.948Z,16.91
2019-02-08T03:35:29.553Z,16.89
2019-02-08T03:36:10.175Z,16.91
2019-02-08T03:36:50.776Z,16.88
2019-02-08T03:37:31.388Z,16.91
2019-02-08T03:38:12.009Z,16.97
2019-02-08T03:38:52.620Z,16.91
2019-02-08T03:39:33.214Z,16.97
2019-02-08T03:40:13.828Z,16.86
2019-02-08T03:40:54.423Z,16.89
2019-02-08T03:41:35.015Z,16.82
2019-02-08T03:42:15.612Z,16.91
2019-02-08T03:42:56.216Z,16.93
2019-02-08T03:43:36.794Z,16.93
2019-02-08T03:44:17.403Z,16.85
2019-02-08T03:44:58.000Z,16.88
2019-02-08T03:45:38.601Z,16.91
2019-02-08T03:46:19.233Z,16.91
2019-02-08T03:46:59.843Z,16.86
2019-02-08T03:47:40.437Z,16.93
2019-02-08T03:48:21.053Z,16.88
2019-02-08T03:49:01.650Z,16.89
2019-02-08T03:49:42.255Z,16.93
2019-02-08T03:50:22.861Z,16.89
2019-02-08T03:51:03.474Z,16.86
2019-02-08T03:51:44.054Z,16.89
2019-02-08T03:52:24.643Z,16.89
2019-02-08T03:53:05.249Z,16.85
2019-02-08T03:53:45.870Z,16.89
2019-02-08T03:54:26.463Z,16.89
2019-02-08T03:55:07.076Z,16.88
2019-02-08T03:55:47.679Z,16.88
2019-02-08T03:56:28.277Z,16.88
2019-02-08T03:57:08.867Z,16.89
2019-02-08T03:57:49.457Z,16.86
2019-02-08T03:58:30.057Z,16.88
2019-02-08T03:59:10.647Z,16.89
2019-02-08T03:59:51.231Z,16.96
2019-02-08T04:00:31.841Z,16.83
2019-02-08T04:01:12.413Z,16.89
2019-02-08T04:01:53.062Z,16.96
2019-02-08T04:02:33.774Z,16.91
2019-02-08T04:03:14.361Z,16.86
2019-02-08T04:03:54.983Z,16.83
2019-02-08T04:04:35.595Z,16.83
2019-02-08T04:05:16.204Z,16.91
2019-02-08T04:05:56.831Z,16.86
2019-02-08T04:06:37.430Z,16.88
2019-02-08T04:07:18.048Z,16.83
2019-02-08T04:07:58.648Z,16.94
2019-02-08T04:08:39.233Z,16.89
2019-02-08T04:09:19.816Z,16.89
2019-02-08T04:10:00.411Z,16.88
2019-02-08T04:10:41.015Z,16.86
2019-02-08T04:11:21.622Z,16.94
2019-02-08T04:12:02.213Z,16.89
2019-02-08T04:12:42.820Z,16.86
2019-02-08T04:13:23.471Z,16.86
2019-02-08T04:14:04.083Z,16.91
2019-02-08T04:14:44.674Z,16.91
2019-02-08T04:15:25.281Z,16.93
2019-02-08T04:16:05.905Z,16.86
2019-02-08T04:16:46.507Z,16.89
2019-02-08T04:17:27.173Z,16.89
2019-02-08T04:18:07.826Z,16.83
2019-02-08T04:18:48.416Z,16.88
2019-02-08T04:19:29.014Z,16.91
2019-02-08T04:20:09.609Z,16.83
2019-02-08T04:20:50.220Z,16.89
2019-02-08T04:21:30.807Z,16.86
2019-02-08T04:22:11.432Z,16.88
2019-02-08T04:22:52.031Z,16.89
2019-02-08T04:23:32.621Z,16.89
2019-02-08T04:24:13.222Z,16.83
2019-02-08T04:24:53.802Z,16.86
2019-02-08T04:25:34.392Z,16.88
2019-02-08T04:26:14.977Z,16.89
2019-02-08T04:26:55.580Z,16.86
2019-02-08T04:27:36.181Z,16.86
2019-02-08T04:28:16.785Z,16.86
2019-02-08T04:28:57.377Z,16.83
2019-02-08T04:29:37.994Z,16.85
2019-02-08T04:30:18.582Z,16.91
2019-02-08T04:30:59.184Z,16.91
2019-02-08T04:31:39.795Z,16.86
2019-02-08T04:32:20.388Z,16.86
2019-02-08T04:33:01.007Z,16.86
2019-02-08T04:33:41.597Z,16.88
2019-02-08T04:34:22.189Z,16.85
2019-02-08T04:35:02.793Z,16.89
2019-02-08T04:35:43.417Z,16.85
2019-02-08T04:36:24.029Z,16.86
2019-02-08T04:37:04.655Z,16.94
2019-02-08T04:37:45.259Z,16.86
2019-02-08T04:38:25.861Z,17
2019-02-08T04:39:06.468Z,16.88
2019-02-08T04:39:47.065Z,16.89
2019-02-08T04:40:27.679Z,16.83
2019-02-08T04:41:08.310Z,16.88
2019-02-08T04:41:48.921Z,16.91
2019-02-08T04:42:29.534Z,16.88
2019-02-08T04:43:10.133Z,16.89
2019-02-08T04:43:50.742Z,16.91
2019-02-08T04:44:31.339Z,16.91
2019-02-08T04:45:11.934Z,16.97
2019-02-08T04:45:52.523Z,16.88
2019-02-08T04:46:33.147Z,16.88
2019-02-08T04:47:13.748Z,16.86
2019-02-08T04:47:54.353Z,16.86
2019-02-08T04:48:34.977Z,16.89
2019-02-08T04:49:15.609Z,16.89
2019-02-08T04:49:56.196Z,16.88
2019-02-08T04:50:36.783Z,16.89
2019-02-08T04:51:17.420Z,16.89
2019-02-08T04:51:57.976Z,16.79
2019-02-08T04:52:39.320Z,16.96
2019-02-08T04:53:19.917Z,16.86
2019-02-08T04:54:00.503Z,16.88
2019-02-08T04:54:41.109Z,16.88
2019-02-08T04:55:21.706Z,16.91
2019-02-08T04:56:02.341Z,16.79
2019-02-08T04:56:42.888Z,16.88
2019-02-08T04:57:23.480Z,16.85
2019-02-08T04:58:04.078Z,16.83
2019-02-08T04:58:44.682Z,16.86
2019-02-08T04:59:25.303Z,16.83
2019-02-08T05:00:05.943Z,16.85
2019-02-08T05:00:46.543Z,16.86
2019-02-08T05:01:27.152Z,16.86
2019-02-08T05:02:07.755Z,16.81
2019-02-08T05:02:48.346Z,16.91
2019-02-08T05:03:28.931Z,16.86
2019-02-08T05:04:09.532Z,16.88
2019-02-08T05:04:50.126Z,16.89
2019-02-08T05:05:30.728Z,16.88
2019-02-08T05:06:11.321Z,16.88
2019-02-08T05:06:51.921Z,16.83
2019-02-08T05:07:32.510Z,16.79
2019-02-08T05:08:13.114Z,16.85
2019-02-08T05:08:53.709Z,16.82
2019-02-08T05:09:34.295Z,16.86
2019-02-08T05:10:14.911Z,16.79
2019-02-08T05:10:55.500Z,16.89
2019-02-08T05:11:36.098Z,16.81
2019-02-08T05:12:16.692Z,16.81
2019-02-08T05:12:57.289Z,16.83
2019-02-08T05:13:37.904Z,16.82
2019-02-08T05:14:18.490Z,16.86
2019-02-08T05:14:59.116Z,16.88
2019-02-08T05:15:39.688Z,16.82
2019-02-08T05:16:20.300Z,16.79
2019-02-08T05:18:00.240Z,16.81
2019-02-08T05:18:40.782Z,16.91
2019-02-08T05:19:21.376Z,16.89
2019-02-08T05:20:01.982Z,16.78
2019-02-08T05:20:42.584Z,16.79
2019-02-08T05:21:23.174Z,16.76
2019-02-08T05:22:03.771Z,16.86
2019-02-08T05:22:44.377Z,16.82
2019-02-08T05:23:24.981Z,16.81
2019-02-08T05:24:05.582Z,16.78
2019-02-08T05:24:46.235Z,16.91
2019-02-08T05:25:26.794Z,16.81
2019-02-08T05:26:07.382Z,16.78
2019-02-08T05:26:48.066Z,16.76
2019-02-08T05:27:28.658Z,16.79
2019-02-08T05:28:09.264Z,16.83
2019-02-08T05:28:49.874Z,16.81
2019-02-08T05:29:30.477Z,16.81
2019-02-08T05:30:11.079Z,16.85
2019-02-08T05:30:51.682Z,16.81
2019-02-08T05:31:32.272Z,16.78
2019-02-08T05:32:12.869Z,16.82
2019-02-08T05:32:53.466Z,16.81
2019-02-08T05:33:34.048Z,16.81
2019-02-08T05:34:14.658Z,16.78
2019-02-08T05:34:55.240Z,16.82
2019-02-08T05:35:35.836Z,16.81
2019-02-08T05:36:16.433Z,16.76
2019-02-08T05:36:57.032Z,16.78
2019-02-08T05:37:37.637Z,16.78
2019-02-08T05:38:18.235Z,16.81
2019-02-08T05:38:58.826Z,16.75
2019-02-08T05:39:39.440Z,16.76
2019-02-08T05:40:20.035Z,16.78
2019-02-08T05:41:00.631Z,16.79
2019-02-08T05:41:41.226Z,16.81
2019-02-08T05:42:21.820Z,16.78
2019-02-08T05:43:02.412Z,16.82
2019-02-08T05:43:43.008Z,16.81
2019-02-08T05:44:23.608Z,16.79
2019-02-08T05:45:04.202Z,16.78
2019-02-08T05:45:44.789Z,16.86
2019-02-08T05:46:25.384Z,16.78
2019-02-08T05:47:05.990Z,16.78
2019-02-08T05:47:46.570Z,16.76
2019-02-08T05:48:27.169Z,16.76
2019-02-08T05:49:07.767Z,16.79
2019-02-08T05:49:48.366Z,16.81
2019-02-08T05:50:28.949Z,16.76
2019-02-08T05:51:09.570Z,16.78
2019-02-08T05:51:50.154Z,16.73
2019-02-08T05:52:30.747Z,16.79
2019-02-08T05:53:11.329Z,16.76
2019-02-08T05:53:51.935Z,16.79
2019-02-08T05:54:32.549Z,16.78
2019-02-08T05:55:13.136Z,16.78
2019-02-08T05:55:53.739Z,16.81
2019-02-08T05:56:34.323Z,16.78
2019-02-08T05:57:14.926Z,16.78
2019-02-08T05:57:55.510Z,16.76
2019-02-08T05:58:36.127Z,16.79
2019-02-08T05:59:16.724Z,16.76
2019-02-08T05:59:57.324Z,16.85
2019-02-08T06:00:37.921Z,16.75
2019-02-08T06:01:18.514Z,16.73
2019-02-08T06:01:59.110Z,16.78
2019-02-08T06:02:39.706Z,16.76
2019-02-08T06:03:20.308Z,16.78
2019-02-08T06:04:00.907Z,16.75
2019-02-08T06:04:41.530Z,16.82
2019-02-08T06:05:22.137Z,16.75
2019-02-08T06:06:02.736Z,16.81
2019-02-08T06:06:43.349Z,16.83
2019-02-08T06:07:23.946Z,16.75
2019-02-08T06:08:04.545Z,16.78
2019-02-08T06:08:45.161Z,16.75
2019-02-08T06:09:25.755Z,16.85
2019-02-08T06:10:06.344Z,16.81
2019-02-08T06:10:46.947Z,16.75
2019-02-08T06:11:27.543Z,16.81
2019-02-08T06:12:08.186Z,16.78
2019-02-08T06:12:48.803Z,16.78
2019-02-08T06:13:29.400Z,16.76
2019-02-08T06:14:10.047Z,16.78
2019-02-08T06:14:50.626Z,16.71
2019-02-08T06:15:31.279Z,16.81
2019-02-08T06:16:11.879Z,16.75
2019-02-08T06:16:52.467Z,16.78
2019-02-08T06:17:33.074Z,16.73
2019-02-08T06:18:13.663Z,16.79
2019-02-08T06:18:54.268Z,16.82
2019-02-08T06:19:34.876Z,16.82
2019-02-08T06:20:15.458Z,16.79
2019-02-08T06:20:56.048Z,16.7
2019-02-08T06:21:36.655Z,16.79
2019-02-08T06:22:17.289Z,16.81
2019-02-08T06:22:57.896Z,16.75
2019-02-08T06:23:38.510Z,16.82
2019-02-08T06:24:19.202Z,16.79
2019-02-08T06:25:03.388Z,16.68
2019-02-08T06:25:40.379Z,16.85
2019-02-08T06:26:20.998Z,16.83
2019-02-08T06:27:01.616Z,16.81
2019-02-08T06:27:42.206Z,16.78
2019-02-08T06:28:22.796Z,16.82
2019-02-08T06:29:03.402Z,16.73
2019-02-08T06:29:44.001Z,16.76
2019-02-08T06:30:24.610Z,16.82
2019-02-08T06:31:05.198Z,16.78
2019-02-08T06:31:45.816Z,16.75
2019-02-08T06:32:26.416Z,16.78
2019-02-08T06:33:07.008Z,16.73
2019-02-08T06:33:47.588Z,16.85
2019-02-08T06:34:28.184Z,16.82
2019-02-08T06:35:08.794Z,16.78
2019-02-08T06:35:49.398Z,16.78
2019-02-08T06:36:29.992Z,16.79
2019-02-08T06:37:10.600Z,16.78
2019-02-08T06:37:51.200Z,16.82
2019-02-08T06:38:31.787Z,16.71
2019-02-08T06:39:12.362Z,16.78
2019-02-08T06:39:52.958Z,16.76
2019-02-08T06:40:33.559Z,16.78
2019-02-08T06:41:14.148Z,16.79
2019-02-08T06:41:54.752Z,16.75
2019-02-08T06:42:35.358Z,16.78
2019-02-08T06:43:15.972Z,16.75
2019-02-08T06:43:56.596Z,16.78
2019-02-08T06:44:37.174Z,16.79
2019-02-08T06:45:17.769Z,16.78
2019-02-08T06:45:58.366Z,16.81
2019-02-08T06:46:38.972Z,16.75
2019-02-08T06:47:19.584Z,16.79
2019-02-08T06:48:00.182Z,16.81
2019-02-08T06:48:40.770Z,16.68
2019-02-08T06:49:21.360Z,16.76
2019-02-08T06:50:01.956Z,16.79
2019-02-08T06:50:42.565Z,16.81
2019-02-08T06:51:23.176Z,16.7
2019-02-08T06:52:03.791Z,16.67
2019-02-08T06:52:44.374Z,16.76
2019-02-08T06:53:24.989Z,16.75
2019-02-08T06:54:05.586Z,16.78
2019-02-08T06:54:46.188Z,16.68
2019-02-08T06:55:26.788Z,16.75
2019-02-08T06:56:07.379Z,16.71
2019-02-08T06:56:48.014Z,16.67
2019-02-08T06:57:28.607Z,16.76
2019-02-08T06:58:09.208Z,16.68
2019-02-08T06:58:49.798Z,16.79
2019-02-08T06:59:30.402Z,16.71
2019-02-08T07:00:11.006Z,16.76
2019-02-08T07:00:51.602Z,16.67
2019-02-08T07:01:32.196Z,16.73
2019-02-08T07:02:12.808Z,16.73
2019-02-08T07:02:53.405Z,16.76
2019-02-08T07:03:34.002Z,16.76
2019-02-08T07:04:14.598Z,16.73
2019-02-08T07:04:55.188Z,16.71
2019-02-08T07:05:35.770Z,16.76
2019-02-08T07:06:16.356Z,16.78
2019-02-08T07:06:56.948Z,16.76
2019-02-08T07:07:37.543Z,16.78
2019-02-08T07:08:18.124Z,16.81
2019-02-08T07:08:58.726Z,16.71
2019-02-08T07:09:39.321Z,16.73
2019-02-08T07:10:19.932Z,16.71
2019-02-08T07:11:00.506Z,16.76
2019-02-08T07:11:41.090Z,16.73
2019-02-08T07:12:21.683Z,16.79
2019-02-08T07:13:02.298Z,16.73
2019-02-08T07:13:42.886Z,16.79
2019-02-08T07:14:23.478Z,16.78
2019-02-08T07:15:04.118Z,16.71
2019-02-08T07:15:44.703Z,16.71
2019-02-08T07:16:25.304Z,16.68
2019-02-08T07:17:05.920Z,16.64
2019-02-08T07:17:46.524Z,16.68
2019-02-08T07:18:27.124Z,16.7
2019-02-08T07:19:07.713Z,16.76
2019-02-08T07:19:48.307Z,16.7
2019-02-08T07:20:28.892Z,16.73
2019-02-08T07:21:09.510Z,16.71
2019-02-08T07:21:50.102Z,16.79
2019-02-08T07:22:30.756Z,16.76
2019-02-08T07:23:11.350Z,16.82
2019-02-08T07:23:51.930Z,16.75
2019-02-08T07:24:32.520Z,16.73
2019-02-08T07:25:18.279Z,16.75
2019-02-08T07:25:53.752Z,16.75
2019-02-08T07:26:34.373Z,16.73
2019-02-08T07:27:14.990Z,16.79
2019-02-08T07:27:55.578Z,16.76
2019-02-08T07:28:36.158Z,16.73
2019-02-08T07:29:16.751Z,16.71
2019-02-08T07:29:57.338Z,16.76
2019-02-08T07:30:37.958Z,16.75
2019-02-08T07:31:18.554Z,16.76
2019-02-08T07:31:59.148Z,16.76
2019-02-08T07:32:39.748Z,16.73
2019-02-08T07:33:20.340Z,16.81
2019-02-08T07:34:00.933Z,16.79
2019-02-08T07:34:41.543Z,16.79
2019-02-08T07:35:22.138Z,16.79
2019-02-08T07:36:02.743Z,16.76
2019-02-08T07:36:43.367Z,16.81
2019-02-08T07:37:23.956Z,16.81
2019-02-08T07:38:04.556Z,16.76
2019-02-08T07:38:45.148Z,16.75
2019-02-08T07:39:25.807Z,16.81
2019-02-08T07:40:06.409Z,16.75
2019-02-08T07:40:47.028Z,16.78
2019-02-08T07:41:27.657Z,16.76
2019-02-08T07:42:08.244Z,16.78
2019-02-08T07:42:48.834Z,16.81
2019-02-08T07:43:29.420Z,16.78
2019-02-08T07:44:10.018Z,16.76
2019-02-08T07:44:50.620Z,16.82
2019-02-08T07:45:31.219Z,16.76
2019-02-08T07:46:11.802Z,16.88
2019-02-08T07:46:52.424Z,16.89
2019-02-08T07:47:32.978Z,16.82
2019-02-08T07:48:13.591Z,16.75
2019-02-08T07:48:54.192Z,16.85
2019-02-08T07:49:34.785Z,16.78
2019-02-08T07:50:15.386Z,16.79
2019-02-08T07:50:55.972Z,16.85
2019-02-08T07:51:36.570Z,16.81
2019-02-08T07:52:17.182Z,16.76
2019-02-08T07:52:57.780Z,16.88
2019-02-08T07:53:38.402Z,16.82
2019-02-08T07:54:19.011Z,16.86
2019-02-08T07:54:59.617Z,16.82
2019-02-08T07:55:40.208Z,16.78
2019-02-08T07:56:20.796Z,16.78
2019-02-08T07:57:01.386Z,16.91
2019-02-08T07:57:42.000Z,16.91
2019-02-08T07:58:22.623Z,16.88
2019-02-08T07:59:03.216Z,16.79
2019-02-08T07:59:43.801Z,16.83
2019-02-08T08:00:24.397Z,16.88
2019-02-08T08:01:04.990Z,16.91
2019-02-08T08:01:45.594Z,16.86
2019-02-08T08:02:26.201Z,16.88
2019-02-08T08:03:06.804Z,16.86
2019-02-08T08:03:47.396Z,16.89
2019-02-08T08:04:28.003Z,16.88
2019-02-08T08:05:08.604Z,16.91
2019-02-08T08:05:49.217Z,16.91
2019-02-08T08:06:29.823Z,16.89
2019-02-08T08:07:10.438Z,16.89
2019-02-08T08:07:51.028Z,16.89
2019-02-08T08:08:31.629Z,16.96
2019-02-08T08:09:12.225Z,16.88
2019-02-08T08:09:52.836Z,16.89
2019-02-08T08:10:33.449Z,16.91
2019-02-08T08:11:14.049Z,16.89
2019-02-08T08:11:54.647Z,16.86
2019-02-08T08:12:35.237Z,16.86
2019-02-08T08:13:15.854Z,16.86
2019-02-08T08:13:56.462Z,16.89
2019-02-08T08:14:37.060Z,16.88
2019-02-08T08:15:17.649Z,16.91
2019-02-08T08:15:58.257Z,16.91
2019-02-08T08:16:38.850Z,16.89
2019-02-08T08:17:19.457Z,16.86
2019-02-08T08:18:00.051Z,16.83
2019-02-08T08:18:40.661Z,16.86
2019-02-08T08:19:21.256Z,16.93
2019-02-08T08:20:01.851Z,16.91
2019-02-08T08:20:42.480Z,16.86
2019-02-08T08:21:23.104Z,16.86
2019-02-08T08:22:03.719Z,16.89
2019-02-08T08:22:44.328Z,16.86
2019-02-08T08:23:24.914Z,16.88
2019-02-08T08:24:05.514Z,16.91
2019-02-08T08:24:46.186Z,16.86
2019-02-08T08:25:33.601Z,16.86
2019-02-08T08:26:07.403Z,16.82
2019-02-08T08:26:48.012Z,16.91
2019-02-08T08:27:28.625Z,16.91
2019-02-08T08:28:09.238Z,16.93
2019-02-08T08:28:49.854Z,16.88
2019-02-08T08:29:30.444Z,16.93
2019-02-08T08:30:11.048Z,16.86
2019-02-08T08:30:51.644Z,16.91
2019-02-08T08:31:32.230Z,16.88
2019-02-08T08:32:12.875Z,16.91
2019-02-08T08:32:53.459Z,16.94
2019-02-08T08:33:34.099Z,16.86
2019-02-08T08:34:14.728Z,16.91
2019-02-08T08:34:55.336Z,16.83
2019-02-08T08:35:35.935Z,16.88
2019-02-08T08:36:16.550Z,16.86
2019-02-08T08:36:57.167Z,16.83
2019-02-08T08:37:37.767Z,16.91
2019-02-08T08:38:18.356Z,16.91
2019-02-08T08:38:58.950Z,16.91
2019-02-08T08:39:39.562Z,16.93
2019-02-08T08:40:20.166Z,16.89
2019-02-08T08:41:00.763Z,16.88
2019-02-08T08:41:41.381Z,16.86
2019-02-08T08:42:21.980Z,16.93
2019-02-08T08:43:02.630Z,16.98
2019-02-08T08:43:43.250Z,16.88
2019-02-08T08:44:23.832Z,16.93